sensor_id;sensor_type;location;lat;lon;timestamp;P1;durP1;ratioP1;P2;durP2;ratioP2
6852;SDS011;3465;42.144;24.722;2023-08-30T00:00:15;17.88;;;10.18;;
6852;SDS011;3465;42.144;24.722;2023-08-30T00:02:42;19.90;;;11.13;;
6852;SDS011;3465;42.144;24.722;2023-08-30T00:05:09;21.45;;;10.93;;
6852;SDS011;3465;42.144;24.722;2023-08-30T00:07:35;17.55;;;10.32;;
6852;SDS011;3465;42.144;24.722;2023-08-30T00:10:00;19.67;;;11.48;;
6852;SDS011;3465;42.144;24.722;2023-08-30T00:12:27;22.33;;;12.07;;
6852;SDS011;3465;42.144;24.722;2023-08-30T00:14:52;30.50;;;12.93;;
6852;SDS011;3465;42.144;24.722;2023-08-30T00:17:18;23.58;;;12.43;;
6852;SDS011;3465;42.144;24.722;2023-08-30T00:19:44;22.95;;;12.38;;
6852;SDS011;3465;42.144;24.722;2023-08-30T00:22:10;20.08;;;11.98;;
6852;SDS011;3465;42.144;24.722;2023-08-30T00:24:36;17.58;;;11.27;;
6852;SDS011;3465;42.144;24.722;2023-08-30T00:27:02;23.02;;;11.75;;
6852;SDS011;3465;42.144;24.722;2023-08-30T00:29:28;17.65;;;11.10;;
6852;SDS011;3465;42.144;24.722;2023-08-30T00:31:53;15.82;;;10.27;;
6852;SDS011;3465;42.144;24.722;2023-08-30T00:34:19;16.90;;;10.02;;
6852;SDS011;3465;42.144;24.722;2023-08-30T00:36:48;15.95;;;10.02;;
6852;SDS011;3465;42.144;24.722;2023-08-30T00:39:14;14.60;;;10.02;;
6852;SDS011;3465;42.144;24.722;2023-08-30T00:41:39;17.60;;;9.70;;
6852;SDS011;3465;42.144;24.722;2023-08-30T00:44:05;15.65;;;9.10;;
6852;SDS011;3465;42.144;24.722;2023-08-30T00:46:31;14.95;;;9.25;;
6852;SDS011;3465;42.144;24.722;2023-08-30T00:48:58;16.70;;;9.50;;
6852;SDS011;3465;42.144;24.722;2023-08-30T00:51:25;17.10;;;9.90;;
6852;SDS011;3465;42.144;24.722;2023-08-30T00:53:51;17.85;;;9.57;;
6852;SDS011;3465;42.144;24.722;2023-08-30T00:56:19;14.18;;;8.77;;
6852;SDS011;3465;42.144;24.722;2023-08-30T00:58:46;15.10;;;8.80;;
6852;SDS011;3465;42.144;24.722;2023-08-30T01:01:15;18.73;;;8.57;;
6852;SDS011;3465;42.144;24.722;2023-08-30T01:03:43;13.88;;;9.02;;
6852;SDS011;3465;42.144;24.722;2023-08-30T01:06:09;14.52;;;9.02;;
6852;SDS011;3465;42.144;24.722;2023-08-30T01:08:35;13.23;;;9.38;;
6852;SDS011;3465;42.144;24.722;2023-08-30T01:13:33;13.73;;;9.55;;
6852;SDS011;3465;42.144;24.722;2023-08-30T01:16:05;18.75;;;9.38;;
6852;SDS011;3465;42.144;24.722;2023-08-30T01:18:32;13.57;;;9.23;;
6852;SDS011;3465;42.144;24.722;2023-08-30T01:21:00;16.65;;;9.65;;
6852;SDS011;3465;42.144;24.722;2023-08-30T01:23:47;15.95;;;8.75;;
6852;SDS011;3465;42.144;24.722;2023-08-30T01:29:07;16.38;;;9.57;;
6852;SDS011;3465;42.144;24.722;2023-08-30T01:31:35;13.93;;;8.93;;
6852;SDS011;3465;42.144;24.722;2023-08-30T01:34:03;15.02;;;9.40;;
6852;SDS011;3465;42.144;24.722;2023-08-30T01:36:29;12.88;;;8.70;;
6852;SDS011;3465;42.144;24.722;2023-08-30T01:38:56;16.83;;;9.40;;
6852;SDS011;3465;42.144;24.722;2023-08-30T01:41:23;17.77;;;9.27;;
6852;SDS011;3465;42.144;24.722;2023-08-30T01:43:50;13.38;;;8.82;;
6852;SDS011;3465;42.144;24.722;2023-08-30T01:46:17;16.48;;;9.18;;
6852;SDS011;3465;42.144;24.722;2023-08-30T01:48:44;11.95;;;8.90;;
6852;SDS011;3465;42.144;24.722;2023-08-30T01:51:12;13.05;;;8.60;;
6852;SDS011;3465;42.144;24.722;2023-08-30T01:53:40;18.13;;;9.10;;
6852;SDS011;3465;42.144;24.722;2023-08-30T01:56:08;17.38;;;9.18;;
6852;SDS011;3465;42.144;24.722;2023-08-30T01:58:33;14.68;;;9.10;;
6852;SDS011;3465;42.144;24.722;2023-08-30T02:00:58;12.05;;;8.88;;
6852;SDS011;3465;42.144;24.722;2023-08-30T02:03:25;15.23;;;9.02;;
6852;SDS011;3465;42.144;24.722;2023-08-30T02:06:10;13.45;;;9.25;;
6852;SDS011;3465;42.144;24.722;2023-08-30T02:08:45;17.75;;;9.68;;
6852;SDS011;3465;42.144;24.722;2023-08-30T02:11:19;12.55;;;9.10;;
6852;SDS011;3465;42.144;24.722;2023-08-30T02:13:52;17.08;;;9.32;;
6852;SDS011;3465;42.144;24.722;2023-08-30T02:16:19;15.30;;;8.95;;
6852;SDS011;3465;42.144;24.722;2023-08-30T02:18:47;20.77;;;10.10;;
6852;SDS011;3465;42.144;24.722;2023-08-30T02:21:14;14.48;;;9.85;;
6852;SDS011;3465;42.144;24.722;2023-08-30T02:23:39;15.75;;;9.10;;
6852;SDS011;3465;42.144;24.722;2023-08-30T02:26:04;17.90;;;9.30;;
6852;SDS011;3465;42.144;24.722;2023-08-30T02:28:30;14.32;;;8.93;;
6852;SDS011;3465;42.144;24.722;2023-08-30T02:30:56;13.48;;;9.52;;
6852;SDS011;3465;42.144;24.722;2023-08-30T02:33:21;16.98;;;8.90;;
6852;SDS011;3465;42.144;24.722;2023-08-30T02:35:46;15.45;;;9.50;;
6852;SDS011;3465;42.144;24.722;2023-08-30T02:38:12;12.32;;;9.10;;
6852;SDS011;3465;42.144;24.722;2023-08-30T02:40:37;13.80;;;8.82;;
6852;SDS011;3465;42.144;24.722;2023-08-30T02:43:03;16.40;;;9.27;;
6852;SDS011;3465;42.144;24.722;2023-08-30T02:45:28;20.58;;;9.73;;
6852;SDS011;3465;42.144;24.722;2023-08-30T02:47:57;15.60;;;8.85;;
6852;SDS011;3465;42.144;24.722;2023-08-30T02:50:23;18.30;;;9.63;;
6852;SDS011;3465;42.144;24.722;2023-08-30T02:52:49;14.43;;;9.38;;
6852;SDS011;3465;42.144;24.722;2023-08-30T02:55:14;15.30;;;10.02;;
6852;SDS011;3465;42.144;24.722;2023-08-30T02:57:40;14.35;;;8.85;;
6852;SDS011;3465;42.144;24.722;2023-08-30T03:00:05;15.00;;;9.18;;
6852;SDS011;3465;42.144;24.722;2023-08-30T03:02:31;20.30;;;10.63;;
6852;SDS011;3465;42.144;24.722;2023-08-30T03:04:58;13.85;;;9.65;;
6852;SDS011;3465;42.144;24.722;2023-08-30T03:07:24;15.98;;;9.07;;
6852;SDS011;3465;42.144;24.722;2023-08-30T03:09:52;16.63;;;9.57;;
6852;SDS011;3465;42.144;24.722;2023-08-30T03:12:18;13.27;;;9.35;;
6852;SDS011;3465;42.144;24.722;2023-08-30T03:14:43;14.55;;;9.95;;
6852;SDS011;3465;42.144;24.722;2023-08-30T03:17:08;15.15;;;9.68;;
6852;SDS011;3465;42.144;24.722;2023-08-30T03:19:34;15.25;;;9.35;;
6852;SDS011;3465;42.144;24.722;2023-08-30T03:21:59;13.50;;;9.30;;
6852;SDS011;3465;42.144;24.722;2023-08-30T03:24:25;23.10;;;9.13;;
6852;SDS011;3465;42.144;24.722;2023-08-30T03:26:50;21.13;;;9.25;;
6852;SDS011;3465;42.144;24.722;2023-08-30T03:29:16;15.15;;;9.25;;
6852;SDS011;3465;42.144;24.722;2023-08-30T03:31:42;16.38;;;9.30;;
6852;SDS011;3465;42.144;24.722;2023-08-30T03:34:08;17.15;;;9.45;;
6852;SDS011;3465;42.144;24.722;2023-08-30T03:36:34;16.42;;;9.27;;
6852;SDS011;3465;42.144;24.722;2023-08-30T03:39:00;20.00;;;9.10;;
6852;SDS011;3465;42.144;24.722;2023-08-30T03:41:25;26.30;;;10.10;;
6852;SDS011;3465;42.144;24.722;2023-08-30T03:43:51;31.98;;;9.50;;
6852;SDS011;3465;42.144;24.722;2023-08-30T03:46:16;15.52;;;8.98;;
6852;SDS011;3465;42.144;24.722;2023-08-30T03:48:41;12.73;;;8.93;;
6852;SDS011;3465;42.144;24.722;2023-08-30T03:51:07;19.60;;;8.48;;
6852;SDS011;3465;42.144;24.722;2023-08-30T03:53:32;18.10;;;8.13;;
6852;SDS011;3465;42.144;24.722;2023-08-30T03:55:58;12.35;;;8.15;;
6852;SDS011;3465;42.144;24.722;2023-08-30T03:58:24;13.43;;;8.88;;
6852;SDS011;3465;42.144;24.722;2023-08-30T04:00:50;22.52;;;9.15;;
6852;SDS011;3465;42.144;24.722;2023-08-30T04:03:15;15.00;;;8.50;;
6852;SDS011;3465;42.144;24.722;2023-08-30T04:05:40;22.45;;;9.10;;
6852;SDS011;3465;42.144;24.722;2023-08-30T04:08:06;17.98;;;9.10;;
6852;SDS011;3465;42.144;24.722;2023-08-30T04:10:39;15.38;;;9.20;;
6852;SDS011;3465;42.144;24.722;2023-08-30T04:13:05;16.88;;;8.13;;
6852;SDS011;3465;42.144;24.722;2023-08-30T04:15:32;15.57;;;8.68;;
6852;SDS011;3465;42.144;24.722;2023-08-30T04:17:59;25.58;;;8.60;;
6852;SDS011;3465;42.144;24.722;2023-08-30T04:20:24;18.50;;;8.88;;
6852;SDS011;3465;42.144;24.722;2023-08-30T04:22:50;16.27;;;8.20;;
6852;SDS011;3465;42.144;24.722;2023-08-30T04:25:15;15.98;;;8.55;;
6852;SDS011;3465;42.144;24.722;2023-08-30T04:27:40;24.23;;;9.15;;
6852;SDS011;3465;42.144;24.722;2023-08-30T04:30:06;16.35;;;9.02;;
6852;SDS011;3465;42.144;24.722;2023-08-30T04:32:32;14.30;;;8.02;;
6852;SDS011;3465;42.144;24.722;2023-08-30T04:34:57;19.00;;;7.80;;
6852;SDS011;3465;42.144;24.722;2023-08-30T04:37:23;20.25;;;9.35;;
6852;SDS011;3465;42.144;24.722;2023-08-30T04:39:48;16.58;;;8.65;;
6852;SDS011;3465;42.144;24.722;2023-08-30T04:42:14;17.63;;;8.40;;
6852;SDS011;3465;42.144;24.722;2023-08-30T04:44:40;13.02;;;8.73;;
6852;SDS011;3465;42.144;24.722;2023-08-30T04:47:05;18.10;;;9.00;;
6852;SDS011;3465;42.144;24.722;2023-08-30T04:49:31;13.73;;;8.45;;
6852;SDS011;3465;42.144;24.722;2023-08-30T04:51:56;14.05;;;8.48;;
6852;SDS011;3465;42.144;24.722;2023-08-30T04:54:22;18.00;;;7.95;;
6852;SDS011;3465;42.144;24.722;2023-08-30T04:56:47;17.90;;;8.43;;
6852;SDS011;3465;42.144;24.722;2023-08-30T04:59:12;21.65;;;8.35;;
6852;SDS011;3465;42.144;24.722;2023-08-30T05:01:38;13.90;;;7.63;;
6852;SDS011;3465;42.144;24.722;2023-08-30T05:04:07;18.20;;;8.05;;
6852;SDS011;3465;42.144;24.722;2023-08-30T05:06:32;14.73;;;7.60;;
6852;SDS011;3465;42.144;24.722;2023-08-30T05:08:58;17.70;;;8.27;;
6852;SDS011;3465;42.144;24.722;2023-08-30T05:11:23;16.00;;;7.75;;
6852;SDS011;3465;42.144;24.722;2023-08-30T05:13:49;14.98;;;7.97;;
6852;SDS011;3465;42.144;24.722;2023-08-30T05:16:14;13.88;;;7.25;;
6852;SDS011;3465;42.144;24.722;2023-08-30T05:18:39;14.07;;;7.78;;
6852;SDS011;3465;42.144;24.722;2023-08-30T05:21:05;15.43;;;7.88;;
6852;SDS011;3465;42.144;24.722;2023-08-30T05:23:30;25.20;;;8.23;;
6852;SDS011;3465;42.144;24.722;2023-08-30T05:25:56;15.90;;;8.50;;
6852;SDS011;3465;42.144;24.722;2023-08-30T05:28:21;15.68;;;8.02;;
6852;SDS011;3465;42.144;24.722;2023-08-30T05:30:47;24.77;;;8.38;;
6852;SDS011;3465;42.144;24.722;2023-08-30T05:33:12;14.38;;;7.55;;
6852;SDS011;3465;42.144;24.722;2023-08-30T05:35:38;11.73;;;7.15;;
6852;SDS011;3465;42.144;24.722;2023-08-30T05:38:03;14.75;;;7.13;;
6852;SDS011;3465;42.144;24.722;2023-08-30T05:40:29;19.42;;;7.53;;
6852;SDS011;3465;42.144;24.722;2023-08-30T05:42:54;13.45;;;7.18;;
6852;SDS011;3465;42.144;24.722;2023-08-30T05:45:20;21.50;;;7.55;;
6852;SDS011;3465;42.144;24.722;2023-08-30T05:47:45;11.38;;;6.72;;
6852;SDS011;3465;42.144;24.722;2023-08-30T05:50:11;10.65;;;7.40;;
6852;SDS011;3465;42.144;24.722;2023-08-30T05:52:36;11.05;;;7.22;;
6852;SDS011;3465;42.144;24.722;2023-08-30T05:55:06;15.50;;;7.70;;
6852;SDS011;3465;42.144;24.722;2023-08-30T05:57:33;12.95;;;7.40;;
6852;SDS011;3465;42.144;24.722;2023-08-30T05:59:58;10.45;;;7.60;;
6852;SDS011;3465;42.144;24.722;2023-08-30T06:02:24;18.30;;;7.35;;
6852;SDS011;3465;42.144;24.722;2023-08-30T06:04:50;16.52;;;7.68;;
6852;SDS011;3465;42.144;24.722;2023-08-30T06:07:15;13.43;;;7.03;;
6852;SDS011;3465;42.144;24.722;2023-08-30T06:09:40;12.40;;;7.75;;
6852;SDS011;3465;42.144;24.722;2023-08-30T06:12:06;20.63;;;8.70;;
6852;SDS011;3465;42.144;24.722;2023-08-30T06:14:31;14.25;;;8.20;;
6852;SDS011;3465;42.144;24.722;2023-08-30T06:16:57;14.52;;;8.00;;
6852;SDS011;3465;42.144;24.722;2023-08-30T06:19:22;16.00;;;8.82;;
6852;SDS011;3465;42.144;24.722;2023-08-30T06:21:48;18.55;;;8.45;;
6852;SDS011;3465;42.144;24.722;2023-08-30T06:24:13;15.98;;;8.38;;
6852;SDS011;3465;42.144;24.722;2023-08-30T06:26:38;15.43;;;7.97;;
6852;SDS011;3465;42.144;24.722;2023-08-30T06:29:04;15.55;;;7.72;;
6852;SDS011;3465;42.144;24.722;2023-08-30T06:31:29;10.70;;;7.63;;
6852;SDS011;3465;42.144;24.722;2023-08-30T06:33:55;15.00;;;7.47;;
6852;SDS011;3465;42.144;24.722;2023-08-30T06:36:20;18.98;;;7.18;;
6852;SDS011;3465;42.144;24.722;2023-08-30T06:38:47;15.50;;;7.00;;
6852;SDS011;3465;42.144;24.722;2023-08-30T06:41:13;21.20;;;7.20;;
6852;SDS011;3465;42.144;24.722;2023-08-30T06:43:38;22.60;;;7.50;;
6852;SDS011;3465;42.144;24.722;2023-08-30T06:46:04;26.75;;;6.80;;
6852;SDS011;3465;42.144;24.722;2023-08-30T06:48:29;19.98;;;7.30;;
6852;SDS011;3465;42.144;24.722;2023-08-30T06:50:58;16.88;;;6.47;;
6852;SDS011;3465;42.144;24.722;2023-08-30T06:53:24;13.02;;;6.13;;
6852;SDS011;3465;42.144;24.722;2023-08-30T06:55:59;19.08;;;6.97;;
6852;SDS011;3465;42.144;24.722;2023-08-30T06:58:25;14.70;;;6.43;;
6852;SDS011;3465;42.144;24.722;2023-08-30T07:00:51;13.55;;;6.50;;
6852;SDS011;3465;42.144;24.722;2023-08-30T07:03:17;10.15;;;5.78;;
6852;SDS011;3465;42.144;24.722;2023-08-30T07:05:42;12.55;;;5.72;;
6852;SDS011;3465;42.144;24.722;2023-08-30T07:08:08;15.30;;;6.13;;
6852;SDS011;3465;42.144;24.722;2023-08-30T07:10:34;13.93;;;5.78;;
6852;SDS011;3465;42.144;24.722;2023-08-30T07:13:00;13.85;;;6.13;;
6852;SDS011;3465;42.144;24.722;2023-08-30T07:15:25;15.40;;;5.95;;
6852;SDS011;3465;42.144;24.722;2023-08-30T07:17:51;12.15;;;5.95;;
6852;SDS011;3465;42.144;24.722;2023-08-30T07:20:16;19.50;;;6.60;;
6852;SDS011;3465;42.144;24.722;2023-08-30T07:22:42;11.10;;;5.80;;
6852;SDS011;3465;42.144;24.722;2023-08-30T07:25:07;13.38;;;5.10;;
6852;SDS011;3465;42.144;24.722;2023-08-30T07:27:35;13.15;;;5.45;;
6852;SDS011;3465;42.144;24.722;2023-08-30T07:30:01;13.18;;;6.07;;
6852;SDS011;3465;42.144;24.722;2023-08-30T07:32:26;14.82;;;5.18;;
6852;SDS011;3465;42.144;24.722;2023-08-30T07:34:52;7.97;;;5.47;;
6852;SDS011;3465;42.144;24.722;2023-08-30T07:37:20;7.50;;;5.75;;
6852;SDS011;3465;42.144;24.722;2023-08-30T07:39:46;12.40;;;5.90;;
6852;SDS011;3465;42.144;24.722;2023-08-30T07:42:12;9.70;;;5.78;;
6852;SDS011;3465;42.144;24.722;2023-08-30T07:44:39;12.32;;;5.95;;
6852;SDS011;3465;42.144;24.722;2023-08-30T07:47:04;11.80;;;5.88;;
6852;SDS011;3465;42.144;24.722;2023-08-30T07:49:29;12.38;;;6.00;;
6852;SDS011;3465;42.144;24.722;2023-08-30T07:51:55;15.20;;;5.65;;
6852;SDS011;3465;42.144;24.722;2023-08-30T07:54:20;14.88;;;6.30;;
6852;SDS011;3465;42.144;24.722;2023-08-30T07:56:45;12.65;;;6.07;;
6852;SDS011;3465;42.144;24.722;2023-08-30T07:59:12;10.45;;;5.63;;
6852;SDS011;3465;42.144;24.722;2023-08-30T08:01:37;23.67;;;6.15;;
6852;SDS011;3465;42.144;24.722;2023-08-30T08:04:03;15.73;;;5.95;;
6852;SDS011;3465;42.144;24.722;2023-08-30T08:06:28;7.55;;;5.43;;
6852;SDS011;3465;42.144;24.722;2023-08-30T08:08:54;13.40;;;5.85;;
6852;SDS011;3465;42.144;24.722;2023-08-30T08:11:19;12.77;;;5.80;;
6852;SDS011;3465;42.144;24.722;2023-08-30T08:13:45;9.57;;;5.90;;
6852;SDS011;3465;42.144;24.722;2023-08-30T08:16:11;9.88;;;6.07;;
6852;SDS011;3465;42.144;24.722;2023-08-30T08:18:36;10.75;;;6.13;;
6852;SDS011;3465;42.144;24.722;2023-08-30T08:21:01;18.38;;;6.65;;
6852;SDS011;3465;42.144;24.722;2023-08-30T08:23:27;12.45;;;5.85;;
6852;SDS011;3465;42.144;24.722;2023-08-30T08:25:59;11.52;;;5.60;;
6852;SDS011;3465;42.144;24.722;2023-08-30T08:28:25;17.10;;;5.47;;
6852;SDS011;3465;42.144;24.722;2023-08-30T08:30:50;10.65;;;6.00;;
6852;SDS011;3465;42.144;24.722;2023-08-30T08:33:18;13.88;;;5.97;;
6852;SDS011;3465;42.144;24.722;2023-08-30T08:35:45;12.10;;;5.70;;
6852;SDS011;3465;42.144;24.722;2023-08-30T08:38:13;10.80;;;5.53;;
6852;SDS011;3465;42.144;24.722;2023-08-30T08:40:38;12.25;;;5.57;;
6852;SDS011;3465;42.144;24.722;2023-08-30T08:43:05;8.88;;;4.90;;
6852;SDS011;3465;42.144;24.722;2023-08-30T08:45:31;12.43;;;5.28;;
6852;SDS011;3465;42.144;24.722;2023-08-30T08:48:01;13.15;;;5.60;;
6852;SDS011;3465;42.144;24.722;2023-08-30T08:50:29;12.93;;;5.28;;
6852;SDS011;3465;42.144;24.722;2023-08-30T08:52:54;11.52;;;5.50;;
6852;SDS011;3465;42.144;24.722;2023-08-30T08:55:21;11.80;;;5.10;;
6852;SDS011;3465;42.144;24.722;2023-08-30T08:57:47;14.45;;;5.70;;
6852;SDS011;3465;42.144;24.722;2023-08-30T09:00:14;17.40;;;6.05;;
6852;SDS011;3465;42.144;24.722;2023-08-30T09:02:41;9.10;;;5.05;;
6852;SDS011;3465;42.144;24.722;2023-08-30T09:05:07;9.82;;;5.30;;
6852;SDS011;3465;42.144;24.722;2023-08-30T09:07:33;9.32;;;5.68;;
6852;SDS011;3465;42.144;24.722;2023-08-30T09:09:59;9.07;;;5.50;;
6852;SDS011;3465;42.144;24.722;2023-08-30T09:12:25;10.38;;;5.28;;
6852;SDS011;3465;42.144;24.722;2023-08-30T09:14:54;7.25;;;5.10;;
6852;SDS011;3465;42.144;24.722;2023-08-30T09:17:21;14.80;;;6.10;;
6852;SDS011;3465;42.144;24.722;2023-08-30T09:19:46;7.38;;;5.18;;
6852;SDS011;3465;42.144;24.722;2023-08-30T09:22:12;10.50;;;5.32;;
6852;SDS011;3465;42.144;24.722;2023-08-30T09:24:38;9.68;;;5.07;;
6852;SDS011;3465;42.144;24.722;2023-08-30T09:27:04;16.65;;;5.72;;
6852;SDS011;3465;42.144;24.722;2023-08-30T09:29:30;14.25;;;6.30;;
6852;SDS011;3465;42.144;24.722;2023-08-30T09:31:56;12.65;;;5.68;;
6852;SDS011;3465;42.144;24.722;2023-08-30T09:34:25;9.82;;;5.28;;
6852;SDS011;3465;42.144;24.722;2023-08-30T09:36:51;13.85;;;5.53;;
6852;SDS011;3465;42.144;24.722;2023-08-30T09:39:17;14.05;;;5.63;;
6852;SDS011;3465;42.144;24.722;2023-08-30T09:41:43;8.95;;;5.25;;
6852;SDS011;3465;42.144;24.722;2023-08-30T09:44:20;12.57;;;5.50;;
6852;SDS011;3465;42.144;24.722;2023-08-30T09:46:50;11.00;;;5.13;;
6852;SDS011;3465;42.144;24.722;2023-08-30T09:49:23;8.38;;;5.35;;
6852;SDS011;3465;42.144;24.722;2023-08-30T09:51:50;9.57;;;5.80;;
6852;SDS011;3465;42.144;24.722;2023-08-30T09:54:18;14.60;;;5.65;;
6852;SDS011;3465;42.144;24.722;2023-08-30T09:56:44;14.50;;;5.50;;
6852;SDS011;3465;42.144;24.722;2023-08-30T09:59:12;10.85;;;5.03;;
6852;SDS011;3465;42.144;24.722;2023-08-30T10:01:39;10.48;;;5.22;;
6852;SDS011;3465;42.144;24.722;2023-08-30T10:04:09;12.68;;;5.55;;
6852;SDS011;3465;42.144;24.722;2023-08-30T10:06:35;9.02;;;5.20;;
6852;SDS011;3465;42.144;24.722;2023-08-30T10:09:02;9.55;;;5.47;;
6852;SDS011;3465;42.144;24.722;2023-08-30T10:11:29;8.73;;;5.38;;
6852;SDS011;3465;42.144;24.722;2023-08-30T10:13:57;8.10;;;5.45;;
6852;SDS011;3465;42.144;24.722;2023-08-30T10:16:24;7.47;;;5.50;;
6852;SDS011;3465;42.144;24.722;2023-08-30T10:18:54;12.45;;;5.70;;
6852;SDS011;3465;42.144;24.722;2023-08-30T10:21:25;9.82;;;5.30;;
6852;SDS011;3465;42.144;24.722;2023-08-30T10:23:52;9.85;;;5.18;;
6852;SDS011;3465;42.144;24.722;2023-08-30T10:26:21;10.95;;;5.75;;
6852;SDS011;3465;42.144;24.722;2023-08-30T10:28:48;9.68;;;5.75;;
6852;SDS011;3465;42.144;24.722;2023-08-30T10:31:14;10.63;;;6.00;;
6852;SDS011;3465;42.144;24.722;2023-08-30T10:33:47;9.52;;;5.35;;
6852;SDS011;3465;42.144;24.722;2023-08-30T10:36:25;10.82;;;5.70;;
6852;SDS011;3465;42.144;24.722;2023-08-30T10:38:54;8.30;;;6.00;;
6852;SDS011;3465;42.144;24.722;2023-08-30T10:41:26;9.75;;;6.20;;
6852;SDS011;3465;42.144;24.722;2023-08-30T10:43:52;17.60;;;5.82;;
6852;SDS011;3465;42.144;24.722;2023-08-30T10:46:33;10.02;;;6.20;;
6852;SDS011;3465;42.144;24.722;2023-08-30T10:49:09;12.38;;;5.97;;
6852;SDS011;3465;42.144;24.722;2023-08-30T10:51:40;9.10;;;5.43;;
6852;SDS011;3465;42.144;24.722;2023-08-30T10:54:24;9.95;;;5.63;;
6852;SDS011;3465;42.144;24.722;2023-08-30T10:56:56;9.68;;;5.85;;
6852;SDS011;3465;42.144;24.722;2023-08-30T10:59:26;9.27;;;6.65;;
6852;SDS011;3465;42.144;24.722;2023-08-30T11:01:52;12.52;;;5.97;;
6852;SDS011;3465;42.144;24.722;2023-08-30T11:04:19;9.98;;;6.68;;
6852;SDS011;3465;42.144;24.722;2023-08-30T11:06:47;13.27;;;7.18;;
6852;SDS011;3465;42.144;24.722;2023-08-30T11:09:14;11.57;;;6.50;;
6852;SDS011;3465;42.144;24.722;2023-08-30T11:11:46;11.55;;;6.35;;
6852;SDS011;3465;42.144;24.722;2023-08-30T11:14:13;12.90;;;6.60;;
6852;SDS011;3465;42.144;24.722;2023-08-30T11:16:39;14.35;;;6.97;;
6852;SDS011;3465;42.144;24.722;2023-08-30T11:19:05;9.95;;;6.90;;
6852;SDS011;3465;42.144;24.722;2023-08-30T11:21:34;11.88;;;7.13;;
6852;SDS011;3465;42.144;24.722;2023-08-30T11:24:05;13.43;;;7.20;;
6852;SDS011;3465;42.144;24.722;2023-08-30T11:26:31;14.32;;;7.60;;
6852;SDS011;3465;42.144;24.722;2023-08-30T11:28:57;12.77;;;7.47;;
6852;SDS011;3465;42.144;24.722;2023-08-30T11:31:26;11.40;;;7.25;;
6852;SDS011;3465;42.144;24.722;2023-08-30T11:33:53;16.13;;;7.50;;
6852;SDS011;3465;42.144;24.722;2023-08-30T11:36:21;12.63;;;7.15;;
6852;SDS011;3465;42.144;24.722;2023-08-30T11:38:47;12.30;;;8.18;;
6852;SDS011;3465;42.144;24.722;2023-08-30T11:41:14;13.25;;;7.80;;
6852;SDS011;3465;42.144;24.722;2023-08-30T11:43:40;14.43;;;7.90;;
6852;SDS011;3465;42.144;24.722;2023-08-30T11:46:05;14.75;;;8.48;;
6852;SDS011;3465;42.144;24.722;2023-08-30T11:48:31;13.60;;;8.10;;
6852;SDS011;3465;42.144;24.722;2023-08-30T11:50:57;14.65;;;8.00;;
6852;SDS011;3465;42.144;24.722;2023-08-30T11:53:23;14.13;;;7.70;;
6852;SDS011;3465;42.144;24.722;2023-08-30T11:55:49;12.95;;;7.72;;
6852;SDS011;3465;42.144;24.722;2023-08-30T11:58:17;16.85;;;8.40;;
6852;SDS011;3465;42.144;24.722;2023-08-30T12:00:43;11.00;;;8.13;;
6852;SDS011;3465;42.144;24.722;2023-08-30T12:03:12;13.80;;;7.82;;
6852;SDS011;3465;42.144;24.722;2023-08-30T12:05:50;12.40;;;8.18;;
6852;SDS011;3465;42.144;24.722;2023-08-30T12:08:25;13.80;;;8.20;;
6852;SDS011;3465;42.144;24.722;2023-08-30T12:10:53;13.35;;;8.05;;
6852;SDS011;3465;42.144;24.722;2023-08-30T12:15:52;13.73;;;8.93;;
6852;SDS011;3465;42.144;24.722;2023-08-30T12:18:25;15.73;;;9.13;;
6852;SDS011;3465;42.144;24.722;2023-08-30T12:20:58;19.17;;;8.52;;
6852;SDS011;3465;42.144;24.722;2023-08-30T12:23:26;13.27;;;8.55;;
6852;SDS011;3465;42.144;24.722;2023-08-30T12:25:59;11.93;;;8.23;;
6852;SDS011;3465;42.144;24.722;2023-08-30T12:28:38;14.25;;;8.40;;
6852;SDS011;3465;42.144;24.722;2023-08-30T12:31:09;15.40;;;8.27;;
6852;SDS011;3465;42.144;24.722;2023-08-30T12:33:35;13.60;;;8.25;;
6852;SDS011;3465;42.144;24.722;2023-08-30T12:36:02;11.57;;;8.30;;
6852;SDS011;3465;42.144;24.722;2023-08-30T12:38:28;13.57;;;8.55;;
6852;SDS011;3465;42.144;24.722;2023-08-30T12:40:54;16.65;;;8.68;;
6852;SDS011;3465;42.144;24.722;2023-08-30T12:43:20;15.18;;;8.82;;
6852;SDS011;3465;42.144;24.722;2023-08-30T12:45:47;13.82;;;8.68;;
6852;SDS011;3465;42.144;24.722;2023-08-30T12:48:13;13.32;;;8.75;;
6852;SDS011;3465;42.144;24.722;2023-08-30T12:50:41;15.55;;;8.55;;
6852;SDS011;3465;42.144;24.722;2023-08-30T12:53:08;15.93;;;8.68;;
6852;SDS011;3465;42.144;24.722;2023-08-30T12:55:33;12.75;;;9.00;;
6852;SDS011;3465;42.144;24.722;2023-08-30T12:57:59;14.15;;;8.98;;
6852;SDS011;3465;42.144;24.722;2023-08-30T13:00:26;16.10;;;9.38;;
6852;SDS011;3465;42.144;24.722;2023-08-30T13:02:51;16.33;;;8.85;;
6852;SDS011;3465;42.144;24.722;2023-08-30T13:05:17;12.35;;;8.80;;
6852;SDS011;3465;42.144;24.722;2023-08-30T13:07:43;15.57;;;9.68;;
6852;SDS011;3465;42.144;24.722;2023-08-30T13:10:09;16.15;;;9.80;;
6852;SDS011;3465;42.144;24.722;2023-08-30T13:12:36;18.42;;;10.18;;
6852;SDS011;3465;42.144;24.722;2023-08-30T13:15:05;16.73;;;9.65;;
6852;SDS011;3465;42.144;24.722;2023-08-30T13:17:31;18.08;;;9.45;;
6852;SDS011;3465;42.144;24.722;2023-08-30T13:19:57;17.60;;;10.45;;
6852;SDS011;3465;42.144;24.722;2023-08-30T13:22:23;21.83;;;10.00;;
6852;SDS011;3465;42.144;24.722;2023-08-30T13:24:51;16.42;;;9.70;;
6852;SDS011;3465;42.144;24.722;2023-08-30T13:27:17;19.95;;;10.02;;
6852;SDS011;3465;42.144;24.722;2023-08-30T13:29:43;14.48;;;9.13;;
6852;SDS011;3465;42.144;24.722;2023-08-30T13:32:08;17.52;;;9.02;;
6852;SDS011;3465;42.144;24.722;2023-08-30T13:34:34;19.42;;;9.52;;
6852;SDS011;3465;42.144;24.722;2023-08-30T13:36:59;14.35;;;9.27;;
6852;SDS011;3465;42.144;24.722;2023-08-30T13:39:25;14.50;;;8.65;;
6852;SDS011;3465;42.144;24.722;2023-08-30T13:41:50;13.55;;;9.68;;
6852;SDS011;3465;42.144;24.722;2023-08-30T13:44:15;18.85;;;9.60;;
6852;SDS011;3465;42.144;24.722;2023-08-30T13:46:41;15.70;;;9.02;;
6852;SDS011;3465;42.144;24.722;2023-08-30T13:49:08;15.70;;;9.45;;
6852;SDS011;3465;42.144;24.722;2023-08-30T13:51:34;15.32;;;9.07;;
6852;SDS011;3465;42.144;24.722;2023-08-30T13:53:59;20.48;;;9.40;;
6852;SDS011;3465;42.144;24.722;2023-08-30T13:56:25;13.15;;;8.93;;
6852;SDS011;3465;42.144;24.722;2023-08-30T13:58:50;20.98;;;9.32;;
6852;SDS011;3465;42.144;24.722;2023-08-30T14:01:16;13.00;;;8.23;;
6852;SDS011;3465;42.144;24.722;2023-08-30T14:03:41;16.80;;;9.35;;
6852;SDS011;3465;42.144;24.722;2023-08-30T14:06:08;16.05;;;8.55;;
6852;SDS011;3465;42.144;24.722;2023-08-30T14:08:33;16.92;;;8.73;;
6852;SDS011;3465;42.144;24.722;2023-08-30T14:10:59;17.85;;;8.80;;
6852;SDS011;3465;42.144;24.722;2023-08-30T14:13:24;18.70;;;9.38;;
6852;SDS011;3465;42.144;24.722;2023-08-30T14:15:50;15.23;;;9.68;;
6852;SDS011;3465;42.144;24.722;2023-08-30T14:18:15;21.67;;;9.88;;
6852;SDS011;3465;42.144;24.722;2023-08-30T14:20:41;17.20;;;9.98;;
6852;SDS011;3465;42.144;24.722;2023-08-30T14:23:08;17.73;;;10.10;;
6852;SDS011;3465;42.144;24.722;2023-08-30T14:25:33;17.48;;;10.02;;
6852;SDS011;3465;42.144;24.722;2023-08-30T14:27:59;17.17;;;10.27;;
6852;SDS011;3465;42.144;24.722;2023-08-30T14:30:25;14.02;;;9.38;;
6852;SDS011;3465;42.144;24.722;2023-08-30T14:32:51;16.52;;;9.40;;
6852;SDS011;3465;42.144;24.722;2023-08-30T14:35:16;18.65;;;9.52;;
6852;SDS011;3465;42.144;24.722;2023-08-30T14:37:42;20.52;;;10.30;;
6852;SDS011;3465;42.144;24.722;2023-08-30T14:40:07;16.63;;;10.25;;
6852;SDS011;3465;42.144;24.722;2023-08-30T14:42:33;16.50;;;9.65;;
6852;SDS011;3465;42.144;24.722;2023-08-30T14:44:59;14.63;;;9.35;;
6852;SDS011;3465;42.144;24.722;2023-08-30T14:47:24;15.90;;;9.30;;
6852;SDS011;3465;42.144;24.722;2023-08-30T14:49:50;18.63;;;10.52;;
6852;SDS011;3465;42.144;24.722;2023-08-30T14:52:15;18.60;;;10.25;;